createdAt,value
2023-05-01T00:00:54.800Z,99305.81
2023-05-01T00:03:21.806Z,99304.09
2023-05-01T00:05:49.515Z,99297.09
2023-05-01T00:08:17.226Z,99310.09
2023-05-01T00:10:44.621Z,99314.38
2023-05-01T00:13:11.883Z,99316.25
2023-05-01T00:15:42.526Z,99306.75
2023-05-01T00:18:09.783Z,99321.81
2023-05-01T00:20:37.021Z,99332.31
2023-05-01T00:23:04.659Z,99342.19
2023-05-01T00:25:31.941Z,99334.22
2023-05-01T00:28:00.157Z,99336.94
2023-05-01T00:30:27.913Z,99349.09
2023-05-01T00:32:56.214Z,99333.16
2023-05-01T00:35:23.408Z,99349.22
2023-05-01T00:37:52.092Z,99355.81
2023-05-01T00:40:20.145Z,99351.84
2023-05-01T00:42:47.915Z,99358.41
2023-05-01T00:45:16.147Z,99360.47
2023-05-01T00:47:43.650Z,99351.34
2023-05-01T00:50:12.126Z,99359.72
2023-05-01T00:52:39.871Z,99357.72
2023-05-01T00:55:10.841Z,99348.81
2023-05-01T00:57:38.154Z,99358.94
2023-05-01T01:00:06.109Z,99362.03
2023-05-01T01:02:33.972Z,99363.53
2023-05-01T01:05:01.186Z,99359.00
2023-05-01T01:07:42.726Z,99360.47
2023-05-01T01:10:41.510Z,99366.44
2023-05-01T01:13:18.552Z,99371.31
2023-05-01T01:16:20.470Z,99376.28
2023-05-01T01:19:02.960Z,99387.50
2023-05-01T01:21:42.508Z,99391.88
2023-05-01T01:24:15.946Z,99394.09
2023-05-01T01:26:58.905Z,99390.34
2023-05-01T01:29:32.702Z,99406.97
2023-05-01T01:32:18.748Z,99391.22
2023-05-01T01:34:56.827Z,99398.19
2023-05-01T01:37:38.287Z,99403.53
2023-05-01T01:40:10.731Z,99408.13
2023-05-01T01:42:45.343Z,99400.09
2023-05-01T01:45:31.937Z,99408.19
2023-05-01T01:48:01.278Z,99406.50
2023-05-01T01:50:29.260Z,99402.13
2023-05-01T01:53:00.408Z,99412.91
2023-05-01T01:55:31.574Z,99414.09
2023-05-01T01:58:00.036Z,99421.28
2023-05-01T02:00:28.845Z,99421.34
2023-05-01T02:02:59.703Z,99427.63
2023-05-01T02:05:31.619Z,99430.38
2023-05-01T02:07:59.952Z,99428.75
2023-05-01T02:10:31.344Z,99434.13
2023-05-01T02:12:59.622Z,99436.09
2023-05-01T02:15:28.969Z,99434.56
2023-05-01T02:18:05.313Z,99439.28
2023-05-01T02:20:34.764Z,99438.72
2023-05-01T02:23:07.264Z,99437.34
2023-05-01T02:25:40.120Z,99441.34
2023-05-01T02:28:23.749Z,99447.84
2023-05-01T02:30:53.670Z,99460.72
2023-05-01T02:33:27.414Z,99461.22
2023-05-01T02:35:55.247Z,99470.34
2023-05-01T02:38:23.469Z,99470.72
2023-05-01T02:40:56.873Z,99471.88
2023-05-01T02:43:30.731Z,99473.91
2023-05-01T02:46:02.935Z,99473.38
2023-05-01T02:48:31.926Z,99477.16
2023-05-01T02:51:02.969Z,99477.38
2023-05-01T02:53:32.287Z,99480.22
2023-05-01T02:56:08.998Z,99489.13
2023-05-01T02:58:39.083Z,99490.81
2023-05-01T03:01:07.988Z,99489.06
2023-05-01T03:03:36.028Z,99504.72
2023-05-01T03:06:04.725Z,99497.50
2023-05-01T03:08:33.109Z,99499.03
2023-05-01T03:11:06.557Z,99499.72
2023-05-01T03:13:39.080Z,99512.59
2023-05-01T03:16:07.129Z,99516.78
2023-05-01T03:18:35.599Z,99513.97
2023-05-01T03:21:04.823Z,99526.88
2023-05-01T03:23:33.357Z,99520.09
2023-05-01T03:26:02.426Z,99520.31
2023-05-01T03:28:31.260Z,99520.22
2023-05-01T03:30:58.912Z,99521.63
2023-05-01T03:33:27.957Z,99516.72
2023-05-01T03:36:04.564Z,99519.47
2023-05-01T03:38:34.201Z,99520.34
2023-05-01T03:41:10.776Z,99525.06
2023-05-01T03:43:56.760Z,99517.88
2023-05-01T03:46:47.068Z,99523.84
2023-05-01T03:49:21.772Z,99520.47
2023-05-01T03:51:51.875Z,99522.22
2023-05-01T03:54:19.139Z,99533.47
2023-05-01T03:56:57.229Z,99542.94
2023-05-01T03:59:25.129Z,99545.03
2023-05-01T04:01:52.306Z,99550.34
2023-05-01T04:04:19.431Z,99552.59
2023-05-01T04:06:53.731Z,99553.75
2023-05-01T04:09:24.387Z,99553.59
2023-05-01T04:11:52.282Z,99553.34
2023-05-01T04:14:19.807Z,99552.31
2023-05-01T04:16:47.300Z,99561.19
2023-05-01T04:19:15.236Z,99564.00
2023-05-01T04:21:45.290Z,99565.31
2023-05-01T04:24:13.405Z,99568.38
2023-05-01T04:26:42.846Z,99578.00
2023-05-01T04:29:10.696Z,99571.25
2023-05-01T04:31:38.704Z,99571.56
2023-05-01T04:34:07.050Z,99581.44
2023-05-01T04:36:37.210Z,99574.59
2023-05-01T04:39:04.870Z,99578.09
2023-05-01T04:41:32.824Z,99577.16
2023-05-01T04:44:00.661Z,99582.31
2023-05-01T04:46:27.951Z,99568.13
2023-05-01T04:48:55.513Z,99584.13
2023-05-01T04:51:23.747Z,99600.19
2023-05-01T04:53:51.947Z,99590.88
2023-05-01T04:56:26.432Z,99593.03
2023-05-01T04:59:00.991Z,99598.19
2023-05-01T05:01:30.267Z,99594.16
2023-05-01T05:03:58.692Z,99591.50
2023-05-01T05:06:26.697Z,99602.38
2023-05-01T05:08:54.392Z,99608.00
2023-05-01T05:11:22.123Z,99598.31
2023-05-01T05:13:52.056Z,99603.16
2023-05-01T05:16:20.597Z,99612.16
2023-05-01T05:18:47.790Z,99614.94
2023-05-01T05:21:15.373Z,99607.88
2023-05-01T05:23:51.620Z,99614.19
2023-05-01T05:26:19.403Z,99617.91
2023-05-01T05:28:48.565Z,99617.25
2023-05-01T05:31:15.652Z,99613.72
2023-05-01T05:33:42.555Z,99627.16
2023-05-01T05:36:10.290Z,99619.31
2023-05-01T05:38:40.892Z,99630.81
2023-05-01T05:41:10.793Z,99632.91
2023-05-01T05:43:39.109Z,99633.44
2023-05-01T05:46:07.815Z,99641.16
2023-05-01T05:48:36.982Z,99652.22
2023-05-01T05:51:04.866Z,99650.03
2023-05-01T05:53:32.606Z,99648.97
2023-05-01T05:55:59.927Z,99651.41
2023-05-01T05:58:28.116Z,99654.34
2023-05-01T06:00:58.657Z,99653.13
2023-05-01T06:03:27.583Z,99656.66
2023-05-01T06:05:59.482Z,99660.09
2023-05-01T06:08:27.542Z,99653.22
2023-05-01T06:10:54.581Z,99663.97
2023-05-01T06:13:22.010Z,99659.97
2023-05-01T06:15:50.291Z,99666.81
2023-05-01T06:18:17.880Z,99664.63
2023-05-01T06:20:45.987Z,99666.22
2023-05-01T06:23:13.970Z,99665.69
2023-05-01T06:26:04.280Z,99670.00
2023-05-01T06:28:31.517Z,99669.66
2023-05-01T06:30:58.960Z,99674.06
2023-05-01T06:33:27.582Z,99663.28
2023-05-01T06:36:14.979Z,99678.41
2023-05-01T06:38:49.234Z,99663.38
2023-05-01T06:41:17.409Z,99689.34
2023-05-01T06:43:46.117Z,99688.13
2023-05-01T06:46:13.645Z,99695.81
2023-05-01T06:48:41.134Z,99696.44
2023-05-01T06:51:08.440Z,99702.75
2023-05-01T06:53:36.963Z,99699.50
2023-05-01T06:56:06.097Z,99694.84
2023-05-01T06:58:33.610Z,99690.44
2023-05-01T07:01:00.966Z,99692.78
2023-05-01T07:03:28.786Z,99704.34
2023-05-01T07:05:56.615Z,99696.94
2023-05-01T07:08:24.676Z,99697.25
2023-05-01T07:10:54.253Z,99690.84
2023-05-01T07:13:22.346Z,99711.72
2023-05-01T07:15:50.087Z,99707.94
2023-05-01T07:18:18.900Z,99711.88
2023-05-01T07:20:47.385Z,99707.19
2023-05-01T07:23:14.743Z,99715.16
2023-05-01T07:25:43.084Z,99707.31
2023-05-01T07:28:11.870Z,99719.97
2023-05-01T07:30:40.223Z,99723.84
2023-05-01T07:33:07.720Z,99713.16
2023-05-01T07:35:35.696Z,99721.03
2023-05-01T07:38:05.349Z,99718.16
2023-05-01T07:40:37.038Z,99726.03
2023-05-01T07:43:06.027Z,99730.31
2023-05-01T07:45:36.344Z,99736.75
2023-05-01T07:48:06.893Z,99729.09
2023-05-01T07:50:36.552Z,99738.47
2023-05-01T07:53:05.006Z,99725.97
2023-05-01T07:55:32.842Z,99745.97
2023-05-01T07:58:01.620Z,99748.41
2023-05-01T08:00:32.200Z,99743.50
2023-05-01T08:03:01.292Z,99755.06
2023-05-01T08:05:32.917Z,99764.59
2023-05-01T08:08:02.923Z,99763.00
2023-05-01T08:10:32.454Z,99758.06
2023-05-01T08:13:01.268Z,99762.91
2023-05-01T08:15:29.765Z,99764.63
2023-05-01T08:18:01.521Z,99770.78
2023-05-01T08:20:30.429Z,99766.69
2023-05-01T08:22:58.443Z,99760.06
2023-05-01T08:25:28.585Z,99751.22
2023-05-01T08:27:57.876Z,99753.88
2023-05-01T08:30:28.733Z,99755.16
2023-05-01T08:32:57.605Z,99754.53
2023-05-01T08:35:25.806Z,99750.63
2023-05-01T08:37:56.723Z,99750.44
2023-05-01T08:40:29.107Z,99747.56
2023-05-01T08:43:00.865Z,99767.06
2023-05-01T08:45:32.025Z,99750.09
2023-05-01T08:48:02.080Z,99749.06
2023-05-01T08:50:32.036Z,99755.75
2023-05-01T08:53:05.014Z,99752.88
2023-05-01T08:55:37.727Z,99751.28
2023-05-01T08:58:08.066Z,99750.25
2023-05-01T09:00:37.804Z,99758.44
2023-05-01T09:03:06.809Z,99763.03
2023-05-01T09:05:34.714Z,99765.75
2023-05-01T09:08:02.966Z,99757.88
2023-05-01T09:10:33.876Z,99763.13
2023-05-01T09:13:07.667Z,99761.22
2023-05-01T09:15:36.050Z,99767.88
2023-05-01T09:18:12.832Z,99766.78
2023-05-01T09:20:42.277Z,99773.13
2023-05-01T09:23:09.274Z,99766.03
2023-05-01T09:25:36.671Z,99769.50
2023-05-01T09:28:05.910Z,99775.81
2023-05-01T09:30:38.622Z,99772.09
2023-05-01T09:33:13.845Z,99772.84
2023-05-01T09:35:51.637Z,99776.03
2023-05-01T09:38:24.704Z,99780.25
2023-05-01T09:40:54.644Z,99789.03
2023-05-01T09:43:29.063Z,99772.22
2023-05-01T09:46:05.549Z,99776.13
2023-05-01T09:48:35.783Z,99781.44
2023-05-01T09:51:29.253Z,99774.28
2023-05-01T09:54:01.981Z,99783.00
2023-05-01T09:56:31.578Z,99768.53
2023-05-01T09:59:17.891Z,99769.88
2023-05-01T10:01:46.979Z,99770.81
2023-05-01T10:04:14.345Z,99771.09
2023-05-01T10:06:42.373Z,99776.75
2023-05-01T10:09:16.953Z,99769.53
2023-05-01T10:11:57.884Z,99768.66
2023-05-01T10:14:27.209Z,99781.13
2023-05-01T10:16:54.427Z,99772.28
2023-05-01T10:19:21.644Z,99768.47
2023-05-01T10:21:48.911Z,99769.22
2023-05-01T10:24:17.351Z,99764.88
2023-05-01T10:26:45.042Z,99771.91
2023-05-01T10:29:13.084Z,99772.13
2023-05-01T10:31:42.284Z,99774.69
2023-05-01T10:34:12.231Z,99759.75
2023-05-01T10:36:49.791Z,99764.91
2023-05-01T10:39:33.769Z,99763.22
2023-05-01T10:42:04.980Z,99771.06
2023-05-01T10:44:32.581Z,99776.41
2023-05-01T10:46:59.901Z,99773.69
2023-05-01T10:50:05.481Z,99767.44
2023-05-01T10:53:14.780Z,99774.94
2023-05-01T10:55:45.237Z,99780.28
2023-05-01T10:58:14.281Z,99782.81
2023-05-01T11:00:42.464Z,99782.38
2023-05-01T11:03:21.590Z,99785.97
2023-05-01T11:06:01.426Z,99784.25
2023-05-01T11:08:35.613Z,99777.19
2023-05-01T11:11:23.672Z,99776.59
2023-05-01T11:14:02.204Z,99783.94
2023-05-01T11:16:39.150Z,99777.44
2023-05-01T11:19:29.575Z,99777.44
2023-05-01T11:21:57.749Z,99780.81
2023-05-01T11:24:33.891Z,99777.44
2023-05-01T11:27:02.344Z,99784.16
2023-05-01T11:29:33.647Z,99783.31
2023-05-01T11:32:01.996Z,99787.09
2023-05-01T11:34:36.065Z,99772.41
2023-05-01T11:37:03.318Z,99769.44
2023-05-01T11:39:30.822Z,99769.41
2023-05-01T11:42:10.524Z,99766.91
2023-05-01T11:44:38.328Z,99773.81
2023-05-01T11:47:08.044Z,99767.03
2023-05-01T11:49:39.403Z,99770.47
2023-05-01T11:52:07.740Z,99783.78
2023-05-01T11:54:48.199Z,99789.13
2023-05-01T11:57:15.330Z,99787.16
2023-05-01T11:59:47.588Z,99786.28
2023-05-01T12:02:21.345Z,99788.19
2023-05-01T12:04:48.862Z,99786.31
2023-05-01T12:07:25.666Z,99789.19
2023-05-01T12:09:53.472Z,99799.97
2023-05-01T12:12:20.616Z,99800.31
2023-05-01T12:14:47.862Z,99796.59
2023-05-01T12:17:18.202Z,99790.22
2023-05-01T12:19:49.048Z,99783.38
2023-05-01T12:22:17.458Z,99786.06
2023-05-01T12:24:52.904Z,99790.28
2023-05-01T12:27:20.456Z,99793.19
2023-05-01T12:29:48.405Z,99795.34
2023-05-01T12:32:17.258Z,99801.44
2023-05-01T12:34:45.261Z,99773.97
2023-05-01T12:37:12.438Z,99781.25
2023-05-01T12:39:42.387Z,99783.69
2023-05-01T12:42:15.615Z,99783.22
2023-05-01T12:44:44.298Z,99789.34
2023-05-01T12:47:13.008Z,99798.75
2023-05-01T12:49:40.911Z,99796.66
2023-05-01T12:52:09.430Z,99792.63
2023-05-01T12:54:38.876Z,99787.56
2023-05-01T12:57:18.134Z,99792.97
2023-05-01T12:59:47.357Z,99797.88
2023-05-01T13:02:17.523Z,99795.53
2023-05-01T13:04:45.391Z,99796.25
2023-05-01T13:07:17.422Z,99797.38
2023-05-01T13:09:59.417Z,99800.03
2023-05-01T13:12:28.628Z,99800.94
2023-05-01T13:14:57.568Z,99793.94
2023-05-01T13:17:30.095Z,99798.38
2023-05-01T13:20:03.281Z,99805.13
2023-05-01T13:22:38.698Z,99803.78
2023-05-01T13:25:16.348Z,99805.00
2023-05-01T13:27:50.428Z,99803.22
2023-05-01T13:30:31.316Z,99804.41
2023-05-01T13:32:58.971Z,99803.56
2023-05-01T13:35:27.830Z,99806.41
2023-05-01T13:37:55.403Z,99811.06
2023-05-01T13:40:26.550Z,99810.47
2023-05-01T13:42:56.448Z,99814.72
2023-05-01T13:45:25.484Z,99809.75
2023-05-01T13:47:52.839Z,99820.06
2023-05-01T13:50:20.581Z,99813.22
2023-05-01T13:52:48.686Z,99822.78
2023-05-01T13:55:17.922Z,99820.41
2023-05-01T13:57:45.378Z,99821.59
2023-05-01T14:00:19.712Z,99829.75
2023-05-01T14:02:49.187Z,99824.81
2023-05-01T14:05:17.180Z,99824.97
2023-05-01T14:07:58.785Z,99824.59
2023-05-01T14:10:28.747Z,99821.38
2023-05-01T14:12:59.067Z,99821.31
2023-05-01T14:15:27.474Z,99828.22
2023-05-01T14:17:55.015Z,99819.84
2023-05-01T14:20:25.778Z,99822.91
2023-05-01T14:22:53.773Z,99835.66
2023-05-01T14:25:23.472Z,99842.13
2023-05-01T14:27:55.225Z,99841.13
2023-05-01T14:30:30.209Z,99849.94
2023-05-01T14:32:57.528Z,99848.16
2023-05-01T14:35:25.304Z,99839.16
2023-05-01T14:37:54.855Z,99846.91
2023-05-01T14:40:30.803Z,99838.97
2023-05-01T14:42:58.423Z,99848.22
2023-05-01T14:45:26.111Z,99848.81
2023-05-01T14:47:53.643Z,99857.53
2023-05-01T14:50:22.877Z,99865.03
2023-05-01T14:52:58.408Z,99860.44
2023-05-01T14:55:29.738Z,99865.91
2023-05-01T14:57:58.220Z,99864.78
2023-05-01T15:00:26.956Z,99867.91
2023-05-01T15:02:58.083Z,99862.31
2023-05-01T15:05:26.513Z,99866.28
2023-05-01T15:08:01.299Z,99880.88
2023-05-01T15:10:29.654Z,99869.09
2023-05-01T15:12:58.369Z,99872.63
2023-05-01T15:15:27.134Z,99875.91
2023-05-01T15:17:54.785Z,99874.66
2023-05-01T15:20:23.574Z,99886.09
2023-05-01T15:22:51.099Z,99883.19
2023-05-01T15:25:18.590Z,99886.00
2023-05-01T15:27:46.563Z,99889.88
2023-05-01T15:30:15.426Z,99890.84
2023-05-01T15:32:43.156Z,99889.19
2023-05-01T15:35:10.893Z,99891.22
2023-05-01T15:37:38.824Z,99887.69
2023-05-01T15:40:07.346Z,99893.16
2023-05-01T15:42:37.446Z,99899.38
2023-05-01T15:45:06.143Z,99902.88
2023-05-01T15:47:33.691Z,99907.13
2023-05-01T15:50:04.054Z,99909.75
2023-05-01T15:52:31.530Z,99906.94
2023-05-01T15:54:59.257Z,99907.47
2023-05-01T15:57:26.960Z,99916.94
2023-05-01T15:59:56.201Z,99913.56
2023-05-01T16:02:23.947Z,99920.38
2023-05-01T16:04:52.270Z,99928.13
2023-05-01T16:07:22.006Z,99931.50
2023-05-01T16:09:49.624Z,99935.13
2023-05-01T16:12:21.512Z,99939.25
2023-05-01T16:14:49.349Z,99944.16
2023-05-01T16:17:18.873Z,99944.56
2023-05-01T16:19:47.025Z,99950.63
2023-05-01T16:22:15.369Z,99949.88
2023-05-01T16:24:42.894Z,99951.38
2023-05-01T16:27:14.087Z,99954.97
2023-05-01T16:29:41.621Z,99959.22
2023-05-01T16:32:11.693Z,99963.56
2023-05-01T16:34:40.689Z,99962.56
2023-05-01T16:37:07.995Z,99970.03
2023-05-01T16:39:39.835Z,99974.91
2023-05-01T16:42:07.402Z,99979.22
2023-05-01T16:44:37.031Z,99979.56
2023-05-01T16:47:05.402Z,99983.50
2023-05-01T16:49:33.044Z,99986.91
2023-05-01T16:52:03.361Z,99988.69
2023-05-01T16:54:37.398Z,99990.28
2023-05-01T16:57:05.785Z,99991.84
2023-05-01T16:59:34.746Z,100004.78
2023-05-01T17:02:04.560Z,100006.59
2023-05-01T17:04:32.335Z,100009.94
2023-05-01T17:07:00.092Z,100010.56
2023-05-01T17:09:27.618Z,100017.47
2023-05-01T17:11:57.036Z,100022.66
2023-05-01T17:14:24.608Z,100026.22
2023-05-01T17:16:52.172Z,100029.50
2023-05-01T17:19:19.929Z,100033.88
2023-05-01T17:21:47.618Z,100038.19
2023-05-01T17:24:14.908Z,100032.84
2023-05-01T17:26:42.623Z,100039.00
2023-05-01T17:29:10.081Z,100038.94
2023-05-01T17:31:37.278Z,100052.09
2023-05-01T17:34:04.672Z,100052.78
2023-05-01T17:36:32.467Z,100054.44
2023-05-01T17:39:01.682Z,100056.91
2023-05-01T17:41:29.385Z,100058.44
2023-05-01T17:43:56.899Z,100059.13
2023-05-01T17:46:24.367Z,100065.19
2023-05-01T17:48:52.152Z,100065.94
2023-05-01T17:51:19.931Z,100072.69
2023-05-01T17:53:47.492Z,100078.59
2023-05-01T17:56:16.202Z,100072.13
2023-05-01T17:58:43.482Z,100083.13
2023-05-01T18:01:11.413Z,100088.72
2023-05-01T18:03:39.238Z,100087.28
2023-05-01T18:06:07.045Z,100102.50
2023-05-01T18:08:34.734Z,100104.47
2023-05-01T18:11:03.093Z,100107.31
2023-05-01T18:13:33.781Z,100109.28
2023-05-01T18:16:01.377Z,100106.94
2023-05-01T18:18:28.866Z,100116.03
2023-05-01T18:20:56.265Z,100114.75
2023-05-01T18:23:25.559Z,100118.69
2023-05-01T18:25:52.900Z,100123.38
2023-05-01T18:28:20.387Z,100128.97
2023-05-01T18:30:47.980Z,100133.75
2023-05-01T18:33:15.753Z,100126.31
2023-05-01T18:35:43.508Z,100144.22
2023-05-01T18:38:11.283Z,100146.22
2023-05-01T18:40:39.766Z,100141.19
2023-05-01T18:43:07.011Z,100151.94
2023-05-01T18:45:34.457Z,100159.91
2023-05-01T18:48:02.004Z,100157.41
2023-05-01T18:50:29.503Z,100158.53
2023-05-01T18:52:56.644Z,100160.47
2023-05-01T18:55:23.794Z,100167.59
2023-05-01T18:57:51.352Z,100158.13
2023-05-01T19:00:20.680Z,100165.34
2023-05-01T19:02:52.204Z,100168.16
2023-05-01T19:05:20.067Z,100160.47
2023-05-01T19:07:47.427Z,100171.22
2023-05-01T19:10:15.010Z,100182.03
2023-05-01T19:12:42.734Z,100177.03
2023-05-01T19:15:10.584Z,100173.75
2023-05-01T19:17:37.996Z,100178.28
2023-05-01T19:20:06.067Z,100179.38
2023-05-01T19:22:33.531Z,100176.91
2023-05-01T19:25:02.766Z,100183.28
2023-05-01T19:27:31.328Z,100182.56
2023-05-01T19:30:01.410Z,100183.53
2023-05-01T19:32:29.414Z,100188.00
2023-05-01T19:34:57.124Z,100184.63
2023-05-01T19:37:24.904Z,100180.28
2023-05-01T19:39:52.336Z,100192.59
2023-05-01T19:42:20.037Z,100189.16
2023-05-01T19:44:47.506Z,100189.25
2023-05-01T19:47:14.941Z,100193.72
2023-05-01T19:49:44.120Z,100195.56
2023-05-01T19:52:11.488Z,100192.13
2023-05-01T19:54:38.866Z,100192.25
2023-05-01T19:57:06.390Z,100191.44
2023-05-01T19:59:36.343Z,100192.41
2023-05-01T20:02:04.747Z,100202.09
2023-05-01T20:04:32.101Z,100199.56
2023-05-01T20:06:59.676Z,100190.97
2023-05-01T20:09:27.181Z,100195.47
2023-05-01T20:11:54.575Z,100199.03
2023-05-01T20:14:21.980Z,100201.78
2023-05-01T20:16:53.356Z,100200.09
2023-05-01T20:19:20.731Z,100201.88
2023-05-01T20:21:48.280Z,100201.03
2023-05-01T20:24:15.358Z,100207.16
2023-05-01T20:26:42.724Z,100208.97
2023-05-01T20:29:10.467Z,100205.56
2023-05-01T20:31:37.656Z,100211.72
2023-05-01T20:34:05.098Z,100214.41
2023-05-01T20:36:32.428Z,100220.56
2023-05-01T20:38:59.715Z,100218.81
2023-05-01T20:41:28.227Z,100217.06
2023-05-01T20:43:56.198Z,100220.56
2023-05-01T20:46:24.077Z,100222.34
2023-05-01T20:48:51.996Z,100221.50
2023-05-01T20:51:19.693Z,100225.00
2023-05-01T20:53:47.143Z,100219.75
2023-05-01T20:56:14.689Z,100219.78
2023-05-01T20:58:41.689Z,100222.44
2023-05-01T21:01:09.544Z,100222.44
2023-05-01T21:03:37.027Z,100232.03
2023-05-01T21:06:04.783Z,100231.19
2023-05-01T21:08:33.845Z,100234.66
2023-05-01T21:11:02.090Z,100231.19
2023-05-01T21:13:29.854Z,100233.81
2023-05-01T21:15:57.089Z,100244.31
2023-05-01T21:18:24.458Z,100240.88
2023-05-01T21:20:52.516Z,100260.06
2023-05-01T21:23:19.924Z,100253.06
2023-05-01T21:25:47.550Z,100260.94
2023-05-01T21:28:15.293Z,100262.75
2023-05-01T21:30:42.902Z,100271.50
2023-05-01T21:33:14.530Z,100284.63
2023-05-01T21:35:43.530Z,100282.03
2023-05-01T21:38:11.397Z,100277.69
2023-05-01T21:40:41.576Z,100273.34
2023-05-01T21:43:09.716Z,100279.47
2023-05-01T21:45:40.643Z,100294.31
2023-05-01T21:48:09.719Z,100297.78
2023-05-01T21:50:38.308Z,100303.88
2023-05-01T21:53:07.212Z,100296.88
2023-05-01T21:55:34.641Z,100309.09
2023-05-01T21:58:02.480Z,100296.94
2023-05-01T22:00:30.472Z,100304.78
2023-05-01T22:02:57.992Z,100309.16
2023-05-01T22:05:25.603Z,100307.38
2023-05-01T22:07:54.670Z,100308.25
2023-05-01T22:10:22.315Z,100311.75
2023-05-01T22:12:49.605Z,100315.22
2023-05-01T22:15:17.324Z,100314.34
2023-05-01T22:17:45.317Z,100315.22
2023-05-01T22:20:12.953Z,100320.47
2023-05-01T22:22:43.441Z,100317.00
2023-05-01T22:25:12.246Z,100320.47
2023-05-01T22:27:39.846Z,100314.38
2023-05-01T22:30:07.689Z,100323.09
2023-05-01T22:32:35.012Z,100315.25
2023-05-01T22:35:02.180Z,100316.97
2023-05-01T22:37:29.623Z,100318.72
2023-05-01T22:39:57.179Z,100317.84
2023-05-01T22:42:25.024Z,100320.47
2023-05-01T22:44:52.487Z,100325.66
2023-05-01T22:47:19.829Z,100323.06
2023-05-01T22:49:47.506Z,100325.66
2023-05-01T22:52:15.288Z,100331.78
2023-05-01T22:54:42.879Z,100323.06
2023-05-01T22:57:10.593Z,100327.41
2023-05-01T22:59:39.758Z,100332.63
2023-05-01T23:02:07.430Z,100330.03
2023-05-01T23:04:34.814Z,100330.91
2023-05-01T23:07:02.235Z,100321.31
2023-05-01T23:09:32.359Z,100329.16
2023-05-01T23:12:00.785Z,100325.66
2023-05-01T23:14:28.084Z,100326.53
2023-05-01T23:16:55.516Z,100322.13
2023-05-01T23:19:25.377Z,100325.59
2023-05-01T23:22:08.687Z,100328.22
2023-05-01T23:24:41.763Z,100323.00
2023-05-01T23:27:09.203Z,100324.72
2023-05-01T23:29:36.798Z,100331.69
2023-05-01T23:32:04.759Z,100334.31
2023-05-01T23:34:32.701Z,100335.16
2023-05-01T23:37:00.132Z,100334.31
2023-05-01T23:39:27.113Z,100336.03
2023-05-01T23:41:54.900Z,100338.63
2023-05-01T23:44:22.626Z,100332.53
2023-05-01T23:46:50.136Z,100330.78
2023-05-01T23:49:17.163Z,100337.72
2023-05-01T23:51:44.853Z,100335.06
2023-05-01T23:54:11.870Z,100346.31
2023-05-01T23:56:39.107Z,100343.72
2023-05-01T23:59:06.417Z,100344.56
